Tropical Cyclones
[Index]
Main Index Home Page Stock Weather Photos Extreme Storms Discussion Storm News and Storm Chasing Reports Tropical Cyclones / Hurricanes / Typhoons Weather Data and Links Wild Fires / Bushfires Weather Observation Techniques Weather Picture Catalogue Tornado Pictures and Reports Stock Video Footage and DVDs for sale
Season 2014-2015 Tropical Cyclone IKOLA Track Map
Season 2014-2015 Summaries: [BoM-AU] [JTWC-AU] [JTWC-SIO] [JTWC-SPAC] [JTWC-SH]
<<- Previous TC | JTWC 2014-2015 Season | Next TC ->>

click for intensity scale information  Lat/long Grid: Show Hide

 Date Labels: Show Hide

Joint Typhoon Warning Centre Cyclone Data

Name: IKOLA

04 Apr 2015 06:00 UTC to 08 Apr 2015 06:00 UTC

    date/time    lat    long     hPa   cat  kts
2015-04-04 06   10.5    86.6    1007         20          
2015-04-04 12   10.7    86.5    1007         20          
2015-04-04 18   11.0    86.5    1004         25          
2015-04-05 00   11.3    86.7    1000         30          
2015-04-05 03   11.5    86.9     996         35          
2015-04-05 06   11.8    87.1     996         35          
2015-04-05 12   12.3    87.5     993    1    40          
2015-04-05 18   12.8    88.1     989    1    45          
2015-04-06 00   13.5    88.7     978    2    60          
2015-04-06 00   13.5    88.7     978    2    60          
2015-04-06 06   14.2    89.4     967    3    75          
2015-04-06 06   14.2    89.4     967    3    75          
2015-04-06 06   14.2    89.4     967    3    75          
2015-04-06 12   15.0    90.2     956    3    90          
2015-04-06 12   15.0    90.2     956    3    90          
2015-04-06 12   15.0    90.2     956    3    90          
2015-04-06 18   15.9    91.2     944    4   105          
2015-04-06 18   15.9    91.2     944    4   105          
2015-04-06 18   15.9    91.2     944    4   105          
2015-04-07 00   16.9    92.2     937    4   115          
2015-04-07 00   16.9    92.2     937    4   115          
2015-04-07 00   16.9    92.2     937    4   115          
2015-04-07 06   18.1    93.5     948    4   100          
2015-04-07 06   18.1    93.5     948    4   100          
2015-04-07 06   18.1    93.5     948    4   100          
2015-04-07 12   19.1    94.7     963    3    80          
2015-04-07 12   19.1    94.7     963    3    80          
2015-04-07 12   19.1    94.7     963    3    80          
2015-04-07 18   20.3    96.1     978    2    60          
2015-04-07 18   20.3    96.1     978    2    60          
2015-04-08 00   21.1    97.4     989    1    45          
2015-04-08 06   22.0    99.0    1004         25          
Winds are 1-min average.

Tropical cyclone tracks developed by Michael Bath using data from the Joint Typhoon Warning Centre Best Tracks and Google Maps.


[Australian Severe Weather index] [Copyright Notice] [Email Contacts] [Search This Site] [Privacy Policy]
Document: tropical_cyclone_ikola.htm Updated: 28 June 2017